Portada
METAR-TAF:

METAR-TAF

Aeropuertos :

Aeropuerto de Albacete

Albacete, España

latitud: 38-57N, longitud: 001-51W, altitud: 702 m

Observación

El informe se hizo hace 54 minutos, a las 11:00 UTC
Viento 10 kt del oeste-suroeste
Temperatura 12°C
Humedad 67%
Presión 1014 hPa
Visibilidad 10 km o más
Escasas nubes a una altura de 3000 ft

METAR: LEAB 211100Z 24010KT 9999 FEW030 12/06 Q1014 NOSIG

Hora: 12:54 (11:54 UTC)

Pronóstico

El informe se hizo hace 54 minutos, a las 11:00 UTC
Pronóstico válido del 21 a las 12 UTC al 21 a las 21 UTC
Viento 8 kt del oeste-suroeste
Visibilidad 10 km o más
Cielo nuboso a una altura de 3300 ft
Probabilidad 30% :
Temporalmente
del 21 a las 13 UTC al 21 a las 15 UTC
Visibilidad: 4900 m
llovizna

TAF: LEAB 211100Z 2112/2121 24008KT 9999 BKN033 PROB30 TEMPO 2113/2115 4900 DZ

Observaciones y pronósticos meteorológicos de más de 4000 aeropuertos (mensajes METAR y TAF).

Los puntos amarillos y rojos representan las estaciones disponibles.

Ponga el ratón en el punto deseado para ver el nombre de la estación.

Haga clic para ver las observaciones y los pronósticos meteorológicos.

Para cambiar el mapa : haga clic en los botones verdes con una cruz de color negro para hacer un zoom, en el botón verde con un guión para alejar o en las flechas verdes para mapas adyacentes.


METAR-TAF: